sensor_id;sensor_type;location;lat;lon;timestamp;temperature;humidity
584;HTU21D;27024;54.068;12.116;2024-02-21T00:01:08;6.72;118.99
584;HTU21D;27024;54.068;12.116;2024-02-21T00:03:35;6.72;118.99
584;HTU21D;27024;54.068;12.116;2024-02-21T00:06:02;6.68;118.99
584;HTU21D;27024;54.068;12.116;2024-02-21T00:08:30;6.67;118.99
584;HTU21D;27024;54.068;12.116;2024-02-21T00:10:57;6.65;118.99
584;HTU21D;27024;54.068;12.116;2024-02-21T00:13:25;6.65;118.99
584;HTU21D;27024;54.068;12.116;2024-02-21T00:15:52;6.66;118.99
584;HTU21D;27024;54.068;12.116;2024-02-21T00:18:19;6.65;118.99
584;HTU21D;27024;54.068;12.116;2024-02-21T00:20:47;6.61;118.99
584;HTU21D;27024;54.068;12.116;2024-02-21T00:23:13;6.64;118.99
584;HTU21D;27024;54.068;12.116;2024-02-21T00:25:40;6.65;118.99
584;HTU21D;27024;54.068;12.116;2024-02-21T00:28:08;6.58;118.99
584;HTU21D;27024;54.068;12.116;2024-02-21T00:30:35;6.60;118.99
584;HTU21D;27024;54.068;12.116;2024-02-21T00:33:04;6.60;118.99
584;HTU21D;27024;54.068;12.116;2024-02-21T00:35:32;6.67;118.99
584;HTU21D;27024;54.068;12.116;2024-02-21T00:37:59;6.64;118.99
584;HTU21D;27024;54.068;12.116;2024-02-21T00:40:26;6.66;118.99
584;HTU21D;27024;54.068;12.116;2024-02-21T00:42:53;6.66;118.99
584;HTU21D;27024;54.068;12.116;2024-02-21T00:45:20;6.64;118.99
584;HTU21D;27024;54.068;12.116;2024-02-21T00:47:47;6.64;118.99
584;HTU21D;27024;54.068;12.116;2024-02-21T00:50:14;6.65;118.99
584;HTU21D;27024;54.068;12.116;2024-02-21T00:52:41;6.67;118.99
584;HTU21D;27024;54.068;12.116;2024-02-21T00:55:09;6.64;118.99
584;HTU21D;27024;54.068;12.116;2024-02-21T00:57:36;6.68;118.99
584;HTU21D;27024;54.068;12.116;2024-02-21T01:00:04;6.68;118.99
584;HTU21D;27024;54.068;12.116;2024-02-21T01:02:31;6.68;118.99
584;HTU21D;27024;54.068;12.116;2024-02-21T01:04:58;6.66;118.99
584;HTU21D;27024;54.068;12.116;2024-02-21T01:07:25;6.69;118.99
584;HTU21D;27024;54.068;12.116;2024-02-21T01:09:53;6.68;118.99
584;HTU21D;27024;54.068;12.116;2024-02-21T01:12:20;6.70;118.99
584;HTU21D;27024;54.068;12.116;2024-02-21T01:14:47;6.73;118.99
584;HTU21D;27024;54.068;12.116;2024-02-21T01:17:16;6.70;118.99
584;HTU21D;27024;54.068;12.116;2024-02-21T01:19:43;6.71;118.99
584;HTU21D;27024;54.068;12.116;2024-02-21T01:22:10;6.72;118.99
584;HTU21D;27024;54.068;12.116;2024-02-21T01:24:37;6.72;118.99
584;HTU21D;27024;54.068;12.116;2024-02-21T01:27:04;6.74;118.99
584;HTU21D;27024;54.068;12.116;2024-02-21T01:29:31;6.72;118.99
584;HTU21D;27024;54.068;12.116;2024-02-21T01:31:58;6.75;118.99
584;HTU21D;27024;54.068;12.116;2024-02-21T01:34:25;6.79;118.99
584;HTU21D;27024;54.068;12.116;2024-02-21T01:36:55;6.75;118.99
584;HTU21D;27024;54.068;12.116;2024-02-21T01:39:22;6.78;118.99
584;HTU21D;27024;54.068;12.116;2024-02-21T01:41:48;6.78;118.99
584;HTU21D;27024;54.068;12.116;2024-02-21T01:44:16;6.80;118.99
584;HTU21D;27024;54.068;12.116;2024-02-21T01:46:43;6.76;118.99
584;HTU21D;27024;54.068;12.116;2024-02-21T01:49:10;6.79;118.99
584;HTU21D;27024;54.068;12.116;2024-02-21T01:51:38;6.83;118.99
584;HTU21D;27024;54.068;12.116;2024-02-21T01:54:05;6.86;118.99
584;HTU21D;27024;54.068;12.116;2024-02-21T01:56:33;6.87;118.99
584;HTU21D;27024;54.068;12.116;2024-02-21T01:59:01;6.84;118.99
584;HTU21D;27024;54.068;12.116;2024-02-21T02:01:29;7.01;118.99
584;HTU21D;27024;54.068;12.116;2024-02-21T02:03:57;6.90;118.99
584;HTU21D;27024;54.068;12.116;2024-02-21T02:06:25;6.91;118.99
584;HTU21D;27024;54.068;12.116;2024-02-21T02:08:53;6.94;118.99
584;HTU21D;27024;54.068;12.116;2024-02-21T02:11:21;6.97;118.99
584;HTU21D;27024;54.068;12.116;2024-02-21T02:13:48;6.93;118.99
584;HTU21D;27024;54.068;12.116;2024-02-21T02:16:15;6.93;118.99
584;HTU21D;27024;54.068;12.116;2024-02-21T02:18:42;6.95;118.99
584;HTU21D;27024;54.068;12.116;2024-02-21T02:21:15;6.97;118.99
584;HTU21D;27024;54.068;12.116;2024-02-21T02:23:48;6.98;118.99
584;HTU21D;27024;54.068;12.116;2024-02-21T02:26:15;6.95;118.99
584;HTU21D;27024;54.068;12.116;2024-02-21T02:28:42;7.00;118.99
584;HTU21D;27024;54.068;12.116;2024-02-21T02:31:09;7.00;118.99
584;HTU21D;27024;54.068;12.116;2024-02-21T02:33:36;7.00;118.99
584;HTU21D;27024;54.068;12.116;2024-02-21T02:36:03;7.00;118.99
584;HTU21D;27024;54.068;12.116;2024-02-21T02:38:30;7.05;118.99
584;HTU21D;27024;54.068;12.116;2024-02-21T02:40:57;7.02;118.99
584;HTU21D;27024;54.068;12.116;2024-02-21T02:43:24;7.05;118.99
584;HTU21D;27024;54.068;12.116;2024-02-21T02:45:51;7.02;118.99
584;HTU21D;27024;54.068;12.116;2024-02-21T02:48:18;7.02;118.99
584;HTU21D;27024;54.068;12.116;2024-02-21T02:50:46;7.04;118.99
584;HTU21D;27024;54.068;12.116;2024-02-21T02:53:14;7.01;118.99
584;HTU21D;27024;54.068;12.116;2024-02-21T02:55:40;7.01;118.99
584;HTU21D;27024;54.068;12.116;2024-02-21T02:58:08;7.02;118.99
584;HTU21D;27024;54.068;12.116;2024-02-21T03:00:35;7.13;118.99
584;HTU21D;27024;54.068;12.116;2024-02-21T03:03:03;7.11;118.99
584;HTU21D;27024;54.068;12.116;2024-02-21T03:05:30;7.08;118.99
584;HTU21D;27024;54.068;12.116;2024-02-21T03:07:58;7.09;118.99
584;HTU21D;27024;54.068;12.116;2024-02-21T03:10:26;7.10;118.99
584;HTU21D;27024;54.068;12.116;2024-02-21T03:12:53;7.10;118.99
584;HTU21D;27024;54.068;12.116;2024-02-21T03:15:20;7.10;118.99
584;HTU21D;27024;54.068;12.116;2024-02-21T03:17:47;7.09;118.99
584;HTU21D;27024;54.068;12.116;2024-02-21T03:20:15;7.08;118.99
584;HTU21D;27024;54.068;12.116;2024-02-21T03:22:42;7.09;118.99
584;HTU21D;27024;54.068;12.116;2024-02-21T03:25:09;7.10;118.99
584;HTU21D;27024;54.068;12.116;2024-02-21T03:27:37;7.09;118.99
584;HTU21D;27024;54.068;12.116;2024-02-21T03:30:06;7.11;118.99
584;HTU21D;27024;54.068;12.116;2024-02-21T03:32:33;7.09;118.99
584;HTU21D;27024;54.068;12.116;2024-02-21T03:35:00;7.13;118.99
584;HTU21D;27024;54.068;12.116;2024-02-21T03:37:28;7.11;118.99
584;HTU21D;27024;54.068;12.116;2024-02-21T03:39:55;7.09;118.99
584;HTU21D;27024;54.068;12.116;2024-02-21T03:42:22;7.09;118.99
584;HTU21D;27024;54.068;12.116;2024-02-21T03:44:49;7.12;118.99
584;HTU21D;27024;54.068;12.116;2024-02-21T03:47:16;7.11;118.99
584;HTU21D;27024;54.068;12.116;2024-02-21T03:49:43;7.14;118.99
584;HTU21D;27024;54.068;12.116;2024-02-21T03:52:10;7.12;118.99
584;HTU21D;27024;54.068;12.116;2024-02-21T03:54:37;7.15;118.99
584;HTU21D;27024;54.068;12.116;2024-02-21T03:57:05;7.23;118.99
584;HTU21D;27024;54.068;12.116;2024-02-21T03:59:32;7.28;118.99
584;HTU21D;27024;54.068;12.116;2024-02-21T04:01:59;7.24;118.99
584;HTU21D;27024;54.068;12.116;2024-02-21T04:04:26;7.23;118.99
584;HTU21D;27024;54.068;12.116;2024-02-21T04:06:53;7.25;118.99
584;HTU21D;27024;54.068;12.116;2024-02-21T04:09:20;7.25;118.99
584;HTU21D;27024;54.068;12.116;2024-02-21T04:11:47;7.27;118.99
584;HTU21D;27024;54.068;12.116;2024-02-21T04:14:14;7.28;118.99
584;HTU21D;27024;54.068;12.116;2024-02-21T04:16:41;7.30;118.99
584;HTU21D;27024;54.068;12.116;2024-02-21T04:19:08;7.37;118.99
584;HTU21D;27024;54.068;12.116;2024-02-21T04:21:35;7.35;118.99
584;HTU21D;27024;54.068;12.116;2024-02-21T04:24:03;7.33;118.99
584;HTU21D;27024;54.068;12.116;2024-02-21T04:26:33;7.33;118.99
584;HTU21D;27024;54.068;12.116;2024-02-21T04:29:01;7.38;118.99
584;HTU21D;27024;54.068;12.116;2024-02-21T04:31:29;7.41;118.99
584;HTU21D;27024;54.068;12.116;2024-02-21T04:33:56;7.42;118.99
584;HTU21D;27024;54.068;12.116;2024-02-21T04:36:23;7.44;118.99
584;HTU21D;27024;54.068;12.116;2024-02-21T04:38:51;7.56;118.99
584;HTU21D;27024;54.068;12.116;2024-02-21T04:41:18;7.52;118.99
584;HTU21D;27024;54.068;12.116;2024-02-21T04:43:48;7.52;118.99
584;HTU21D;27024;54.068;12.116;2024-02-21T04:46:15;7.52;118.99
584;HTU21D;27024;54.068;12.116;2024-02-21T04:48:43;7.47;118.99
584;HTU21D;27024;54.068;12.116;2024-02-21T04:51:12;7.46;118.99
584;HTU21D;27024;54.068;12.116;2024-02-21T04:53:40;7.48;118.99
584;HTU21D;27024;54.068;12.116;2024-02-21T04:56:07;7.50;118.99
584;HTU21D;27024;54.068;12.116;2024-02-21T04:58:38;7.52;118.99
584;HTU21D;27024;54.068;12.116;2024-02-21T05:01:06;7.49;118.99
584;HTU21D;27024;54.068;12.116;2024-02-21T05:03:34;7.48;118.99
584;HTU21D;27024;54.068;12.116;2024-02-21T05:06:02;7.49;118.99
584;HTU21D;27024;54.068;12.116;2024-02-21T05:08:29;7.50;118.99
584;HTU21D;27024;54.068;12.116;2024-02-21T05:10:56;7.58;118.99
584;HTU21D;27024;54.068;12.116;2024-02-21T05:13:23;7.55;118.99
584;HTU21D;27024;54.068;12.116;2024-02-21T05:15:50;7.55;118.99
584;HTU21D;27024;54.068;12.116;2024-02-21T05:18:17;7.52;118.99
584;HTU21D;27024;54.068;12.116;2024-02-21T05:20:44;7.52;118.99
584;HTU21D;27024;54.068;12.116;2024-02-21T05:23:11;7.49;118.99
584;HTU21D;27024;54.068;12.116;2024-02-21T05:25:38;7.53;118.99
584;HTU21D;27024;54.068;12.116;2024-02-21T05:28:05;7.52;118.99
584;HTU21D;27024;54.068;12.116;2024-02-21T05:30:33;7.54;118.99
584;HTU21D;27024;54.068;12.116;2024-02-21T05:33:05;7.49;118.99
584;HTU21D;27024;54.068;12.116;2024-02-21T05:35:32;7.49;118.99
584;HTU21D;27024;54.068;12.116;2024-02-21T05:37:59;7.49;118.99
584;HTU21D;27024;54.068;12.116;2024-02-21T05:40:27;7.50;118.99
584;HTU21D;27024;54.068;12.116;2024-02-21T05:42:54;7.49;118.99
584;HTU21D;27024;54.068;12.116;2024-02-21T05:45:21;7.50;118.99
584;HTU21D;27024;54.068;12.116;2024-02-21T05:47:47;7.47;118.99
584;HTU21D;27024;54.068;12.116;2024-02-21T05:50:14;7.46;118.99
584;HTU21D;27024;54.068;12.116;2024-02-21T05:52:42;7.47;118.99
584;HTU21D;27024;54.068;12.116;2024-02-21T05:55:09;7.49;118.99
584;HTU21D;27024;54.068;12.116;2024-02-21T05:57:36;7.48;118.99
584;HTU21D;27024;54.068;12.116;2024-02-21T06:00:05;7.48;118.99
584;HTU21D;27024;54.068;12.116;2024-02-21T06:02:32;7.48;118.99
584;HTU21D;27024;54.068;12.116;2024-02-21T06:04:59;7.54;118.99
584;HTU21D;27024;54.068;12.116;2024-02-21T06:07:26;7.56;118.99
584;HTU21D;27024;54.068;12.116;2024-02-21T06:09:54;7.55;118.99
584;HTU21D;27024;54.068;12.116;2024-02-21T06:12:21;7.57;118.99
584;HTU21D;27024;54.068;12.116;2024-02-21T06:14:48;7.57;118.99
584;HTU21D;27024;54.068;12.116;2024-02-21T06:17:15;7.42;118.99
584;HTU21D;27024;54.068;12.116;2024-02-21T06:19:43;7.28;118.99
584;HTU21D;27024;54.068;12.116;2024-02-21T06:22:11;7.26;118.99
584;HTU21D;27024;54.068;12.116;2024-02-21T06:24:38;7.18;118.99
584;HTU21D;27024;54.068;12.116;2024-02-21T06:27:05;7.13;118.99
584;HTU21D;27024;54.068;12.116;2024-02-21T06:29:36;7.14;118.99
584;HTU21D;27024;54.068;12.116;2024-02-21T06:32:04;7.42;118.99
584;HTU21D;27024;54.068;12.116;2024-02-21T06:34:31;7.29;118.99
584;HTU21D;27024;54.068;12.116;2024-02-21T06:37:00;7.23;118.99
584;HTU21D;27024;54.068;12.116;2024-02-21T06:39:27;7.17;118.99
584;HTU21D;27024;54.068;12.116;2024-02-21T06:41:56;7.11;118.99
584;HTU21D;27024;54.068;12.116;2024-02-21T06:44:29;7.12;118.99
584;HTU21D;27024;54.068;12.116;2024-02-21T06:46:56;7.65;118.99
584;HTU21D;27024;54.068;12.116;2024-02-21T06:49:23;7.67;118.99
584;HTU21D;27024;54.068;12.116;2024-02-21T06:51:51;7.42;118.99
584;HTU21D;27024;54.068;12.116;2024-02-21T06:54:18;7.33;118.99
584;HTU21D;27024;54.068;12.116;2024-02-21T06:56:45;7.41;118.99
584;HTU21D;27024;54.068;12.116;2024-02-21T06:59:12;7.30;118.99
584;HTU21D;27024;54.068;12.116;2024-02-21T07:01:47;7.29;118.99
584;HTU21D;27024;54.068;12.116;2024-02-21T07:04:15;7.25;118.99
584;HTU21D;27024;54.068;12.116;2024-02-21T07:06:42;7.25;118.99
584;HTU21D;27024;54.068;12.116;2024-02-21T07:09:09;7.18;118.99
584;HTU21D;27024;54.068;12.116;2024-02-21T07:11:36;7.14;118.99
584;HTU21D;27024;54.068;12.116;2024-02-21T07:14:04;7.11;118.99
584;HTU21D;27024;54.068;12.116;2024-02-21T07:16:31;7.11;118.99
584;HTU21D;27024;54.068;12.116;2024-02-21T07:19:00;7.02;118.99
584;HTU21D;27024;54.068;12.116;2024-02-21T07:21:27;6.94;118.99
584;HTU21D;27024;54.068;12.116;2024-02-21T07:23:54;6.97;118.99
584;HTU21D;27024;54.068;12.116;2024-02-21T07:26:22;6.94;118.99
584;HTU21D;27024;54.068;12.116;2024-02-21T07:28:49;6.93;118.99
584;HTU21D;27024;54.068;12.116;2024-02-21T07:31:16;6.89;118.99
584;HTU21D;27024;54.068;12.116;2024-02-21T07:33:44;6.84;118.99
584;HTU21D;27024;54.068;12.116;2024-02-21T07:36:11;6.90;118.99
584;HTU21D;27024;54.068;12.116;2024-02-21T07:38:40;6.95;118.99
584;HTU21D;27024;54.068;12.116;2024-02-21T07:41:08;7.03;118.99
584;HTU21D;27024;54.068;12.116;2024-02-21T07:43:35;7.13;118.99
584;HTU21D;27024;54.068;12.116;2024-02-21T07:46:02;7.31;118.99
584;HTU21D;27024;54.068;12.116;2024-02-21T07:48:30;7.32;118.99
584;HTU21D;27024;54.068;12.116;2024-02-21T07:51:01;7.33;118.99
584;HTU21D;27024;54.068;12.116;2024-02-21T07:53:28;7.33;118.99
584;HTU21D;27024;54.068;12.116;2024-02-21T07:55:55;7.39;118.99
584;HTU21D;27024;54.068;12.116;2024-02-21T07:58:22;7.33;118.99
584;HTU21D;27024;54.068;12.116;2024-02-21T08:00:49;7.52;118.99
584;HTU21D;27024;54.068;12.116;2024-02-21T08:03:16;7.57;118.99
584;HTU21D;27024;54.068;12.116;2024-02-21T08:05:44;7.59;118.99
584;HTU21D;27024;54.068;12.116;2024-02-21T08:08:12;7.83;118.99
584;HTU21D;27024;54.068;12.116;2024-02-21T08:10:45;7.85;118.99
584;HTU21D;27024;54.068;12.116;2024-02-21T08:13:12;7.92;118.99
584;HTU21D;27024;54.068;12.116;2024-02-21T08:15:39;8.05;118.99
584;HTU21D;27024;54.068;12.116;2024-02-21T08:18:08;8.05;118.99
584;HTU21D;27024;54.068;12.116;2024-02-21T08:20:36;8.22;118.99
584;HTU21D;27024;54.068;12.116;2024-02-21T08:23:03;8.21;118.99
584;HTU21D;27024;54.068;12.116;2024-02-21T08:25:30;8.22;118.99
584;HTU21D;27024;54.068;12.116;2024-02-21T08:27:58;8.22;118.99
584;HTU21D;27024;54.068;12.116;2024-02-21T08:30:26;8.20;118.99
584;HTU21D;27024;54.068;12.116;2024-02-21T08:32:54;8.13;118.99
584;HTU21D;27024;54.068;12.116;2024-02-21T08:35:21;8.19;118.99
584;HTU21D;27024;54.068;12.116;2024-02-21T08:37:51;8.48;118.99
584;HTU21D;27024;54.068;12.116;2024-02-21T08:40:19;8.27;118.99
584;HTU21D;27024;54.068;12.116;2024-02-21T08:42:48;8.36;118.99
584;HTU21D;27024;54.068;12.116;2024-02-21T08:45:16;8.32;118.99
584;HTU21D;27024;54.068;12.116;2024-02-21T08:47:44;8.36;118.99
584;HTU21D;27024;54.068;12.116;2024-02-21T08:50:12;8.50;118.99
584;HTU21D;27024;54.068;12.116;2024-02-21T08:52:53;8.50;118.99
584;HTU21D;27024;54.068;12.116;2024-02-21T08:55:21;8.44;118.99
584;HTU21D;27024;54.068;12.116;2024-02-21T08:57:49;8.39;118.99
584;HTU21D;27024;54.068;12.116;2024-02-21T09:00:17;8.36;118.99
584;HTU21D;27024;54.068;12.116;2024-02-21T09:02:44;8.39;118.99
584;HTU21D;27024;54.068;12.116;2024-02-21T09:05:11;8.38;118.99
584;HTU21D;27024;54.068;12.116;2024-02-21T09:07:39;8.42;118.99
584;HTU21D;27024;54.068;12.116;2024-02-21T09:10:06;8.47;118.99
584;HTU21D;27024;54.068;12.116;2024-02-21T09:12:34;8.63;118.99
584;HTU21D;27024;54.068;12.116;2024-02-21T09:15:01;8.61;118.99
584;HTU21D;27024;54.068;12.116;2024-02-21T09:17:28;8.60;118.99
584;HTU21D;27024;54.068;12.116;2024-02-21T09:19:56;8.58;118.99
584;HTU21D;27024;54.068;12.116;2024-02-21T09:22:27;8.65;118.99
584;HTU21D;27024;54.068;12.116;2024-02-21T09:24:54;8.82;118.99
584;HTU21D;27024;54.068;12.116;2024-02-21T09:27:21;8.65;118.99
584;HTU21D;27024;54.068;12.116;2024-02-21T09:29:49;8.58;118.99
584;HTU21D;27024;54.068;12.116;2024-02-21T09:32:17;8.67;118.99
584;HTU21D;27024;54.068;12.116;2024-02-21T09:34:45;8.64;118.99
584;HTU21D;27024;54.068;12.116;2024-02-21T09:37:13;8.66;118.99
584;HTU21D;27024;54.068;12.116;2024-02-21T09:39:40;8.75;118.99
584;HTU21D;27024;54.068;12.116;2024-02-21T09:42:10;8.72;118.99
584;HTU21D;27024;54.068;12.116;2024-02-21T09:44:38;8.78;118.99
584;HTU21D;27024;54.068;12.116;2024-02-21T09:47:14;9.17;118.99
584;HTU21D;27024;54.068;12.116;2024-02-21T09:49:43;9.27;118.99
584;HTU21D;27024;54.068;12.116;2024-02-21T09:52:12;9.49;118.99
584;HTU21D;27024;54.068;12.116;2024-02-21T09:54:41;10.11;118.99
584;HTU21D;27024;54.068;12.116;2024-02-21T09:57:13;10.79;118.99
584;HTU21D;27024;54.068;12.116;2024-02-21T09:59:40;10.99;118.99
584;HTU21D;27024;54.068;12.116;2024-02-21T10:02:09;11.40;118.99
584;HTU21D;27024;54.068;12.116;2024-02-21T10:04:36;11.63;118.99
584;HTU21D;27024;54.068;12.116;2024-02-21T10:07:03;11.62;118.99
584;HTU21D;27024;54.068;12.116;2024-02-21T10:09:31;11.87;118.99
584;HTU21D;27024;54.068;12.116;2024-02-21T10:12:09;12.17;118.99
584;HTU21D;27024;54.068;12.116;2024-02-21T10:14:38;12.37;118.99
584;HTU21D;27024;54.068;12.116;2024-02-21T10:17:05;12.45;118.99
584;HTU21D;27024;54.068;12.116;2024-02-21T10:19:38;12.64;118.99
584;HTU21D;27024;54.068;12.116;2024-02-21T10:22:08;12.58;118.99
584;HTU21D;27024;54.068;12.116;2024-02-21T10:24:36;12.59;118.99
584;HTU21D;27024;54.068;12.116;2024-02-21T10:27:13;12.73;118.99
584;HTU21D;27024;54.068;12.116;2024-02-21T10:29:40;12.78;118.99
584;HTU21D;27024;54.068;12.116;2024-02-21T10:32:10;12.97;118.99
584;HTU21D;27024;54.068;12.116;2024-02-21T10:34:40;12.95;118.99
584;HTU21D;27024;54.068;12.116;2024-02-21T10:37:09;13.29;118.99
584;HTU21D;27024;54.068;12.116;2024-02-21T10:39:41;13.21;118.99
584;HTU21D;27024;54.068;12.116;2024-02-21T10:42:11;13.31;118.99
584;HTU21D;27024;54.068;12.116;2024-02-21T10:44:40;13.41;118.99
584;HTU21D;27024;54.068;12.116;2024-02-21T10:47:10;13.41;118.99
584;HTU21D;27024;54.068;12.116;2024-02-21T10:49:41;13.58;118.99
584;HTU21D;27024;54.068;12.116;2024-02-21T10:55:03;14.00;118.99
584;HTU21D;27024;54.068;12.116;2024-02-21T10:57:31;14.10;118.99
584;HTU21D;27024;54.068;12.116;2024-02-21T10:59:59;13.93;118.99
584;HTU21D;27024;54.068;12.116;2024-02-21T11:02:27;14.25;118.99
584;HTU21D;27024;54.068;12.116;2024-02-21T11:04:57;14.03;118.99
584;HTU21D;27024;54.068;12.116;2024-02-21T11:07:26;14.00;118.99
584;HTU21D;27024;54.068;12.116;2024-02-21T11:09:54;14.20;118.99
584;HTU21D;27024;54.068;12.116;2024-02-21T11:12:25;14.51;118.99
584;HTU21D;27024;54.068;12.116;2024-02-21T11:14:53;14.56;118.99
584;HTU21D;27024;54.068;12.116;2024-02-21T11:17:31;14.78;118.99
584;HTU21D;27024;54.068;12.116;2024-02-21T11:19:58;14.94;118.99
584;HTU21D;27024;54.068;12.116;2024-02-21T11:22:27;15.10;118.99
584;HTU21D;27024;54.068;12.116;2024-02-21T11:25:06;15.37;118.99
584;HTU21D;27024;54.068;12.116;2024-02-21T11:27:36;15.03;118.99
584;HTU21D;27024;54.068;12.116;2024-02-21T11:30:05;15.03;118.99
584;HTU21D;27024;54.068;12.116;2024-02-21T11:32:32;15.30;118.99
584;HTU21D;27024;54.068;12.116;2024-02-21T11:35:03;15.83;118.99
584;HTU21D;27024;54.068;12.116;2024-02-21T11:37:35;15.72;118.99
584;HTU21D;27024;54.068;12.116;2024-02-21T11:40:07;15.83;118.99
584;HTU21D;27024;54.068;12.116;2024-02-21T11:42:38;15.83;118.99
584;HTU21D;27024;54.068;12.116;2024-02-21T11:45:06;16.06;118.99
584;HTU21D;27024;54.068;12.116;2024-02-21T11:47:33;16.21;118.99
584;HTU21D;27024;54.068;12.116;2024-02-21T11:50:01;16.39;118.99
584;HTU21D;27024;54.068;12.116;2024-02-21T11:52:28;16.25;118.99
584;HTU21D;27024;54.068;12.116;2024-02-21T11:54:55;15.92;118.99
584;HTU21D;27024;54.068;12.116;2024-02-21T11:57:31;16.25;118.99
584;HTU21D;27024;54.068;12.116;2024-02-21T11:59:58;16.11;118.99
584;HTU21D;27024;54.068;12.116;2024-02-21T12:02:29;16.47;118.99
584;HTU21D;27024;54.068;12.116;2024-02-21T12:04:56;16.61;118.99
584;HTU21D;27024;54.068;12.116;2024-02-21T12:07:24;16.26;118.99
584;HTU21D;27024;54.068;12.116;2024-02-21T12:09:51;16.26;118.99
584;HTU21D;27024;54.068;12.116;2024-02-21T12:12:22;16.73;118.99
584;HTU21D;27024;54.068;12.116;2024-02-21T12:14:56;16.49;118.99
584;HTU21D;27024;54.068;12.116;2024-02-21T12:17:27;16.03;118.99
584;HTU21D;27024;54.068;12.116;2024-02-21T12:19:54;15.60;118.99
584;HTU21D;27024;54.068;12.116;2024-02-21T12:22:21;15.72;118.99
584;HTU21D;27024;54.068;12.116;2024-02-21T12:24:48;15.63;118.99
584;HTU21D;27024;54.068;12.116;2024-02-21T12:27:15;15.61;118.99
584;HTU21D;27024;54.068;12.116;2024-02-21T12:29:43;15.69;118.99
584;HTU21D;27024;54.068;12.116;2024-02-21T12:32:10;15.90;118.99
584;HTU21D;27024;54.068;12.116;2024-02-21T12:34:37;15.40;118.99
584;HTU21D;27024;54.068;12.116;2024-02-21T12:37:21;15.10;118.99
584;HTU21D;27024;54.068;12.116;2024-02-21T12:39:49;15.13;118.99
584;HTU21D;27024;54.068;12.116;2024-02-21T12:42:16;14.92;118.99
584;HTU21D;27024;54.068;12.116;2024-02-21T12:44:44;14.97;118.99
584;HTU21D;27024;54.068;12.116;2024-02-21T12:47:11;15.02;118.99
584;HTU21D;27024;54.068;12.116;2024-02-21T12:49:38;14.66;118.99
584;HTU21D;27024;54.068;12.116;2024-02-21T12:52:11;13.89;118.99
584;HTU21D;27024;54.068;12.116;2024-02-21T12:54:38;13.95;118.99
584;HTU21D;27024;54.068;12.116;2024-02-21T12:57:05;13.83;118.99
584;HTU21D;27024;54.068;12.116;2024-02-21T12:59:32;14.00;118.99
584;HTU21D;27024;54.068;12.116;2024-02-21T13:01:59;13.90;118.99
584;HTU21D;27024;54.068;12.116;2024-02-21T13:04:27;13.74;118.99
584;HTU21D;27024;54.068;12.116;2024-02-21T13:06:54;13.91;118.99
584;HTU21D;27024;54.068;12.116;2024-02-21T13:09:22;13.65;118.99
584;HTU21D;27024;54.068;12.116;2024-02-21T13:11:49;13.46;118.99
584;HTU21D;27024;54.068;12.116;2024-02-21T13:14:18;13.15;118.99
584;HTU21D;27024;54.068;12.116;2024-02-21T13:16:45;12.86;118.99
584;HTU21D;27024;54.068;12.116;2024-02-21T13:19:12;12.81;118.99
584;HTU21D;27024;54.068;12.116;2024-02-21T13:21:44;12.49;118.99
584;HTU21D;27024;54.068;12.116;2024-02-21T13:24:11;12.31;118.99
584;HTU21D;27024;54.068;12.116;2024-02-21T13:26:38;12.23;118.99
584;HTU21D;27024;54.068;12.116;2024-02-21T13:29:05;12.04;118.99
584;HTU21D;27024;54.068;12.116;2024-02-21T13:31:38;12.20;118.99
584;HTU21D;27024;54.068;12.116;2024-02-21T13:34:05;12.25;118.99
584;HTU21D;27024;54.068;12.116;2024-02-21T13:36:36;11.94;118.99
584;HTU21D;27024;54.068;12.116;2024-02-21T13:39:03;11.85;118.99
584;HTU21D;27024;54.068;12.116;2024-02-21T13:41:32;11.97;118.99
584;HTU21D;27024;54.068;12.116;2024-02-21T13:44:00;11.90;118.99
584;HTU21D;27024;54.068;12.116;2024-02-21T13:46:27;11.62;118.99
584;HTU21D;27024;54.068;12.116;2024-02-21T13:49:02;11.61;118.99
584;HTU21D;27024;54.068;12.116;2024-02-21T13:51:32;11.54;118.99
584;HTU21D;27024;54.068;12.116;2024-02-21T13:53:59;11.37;118.99
584;HTU21D;27024;54.068;12.116;2024-02-21T13:56:26;11.23;118.99
584;HTU21D;27024;54.068;12.116;2024-02-21T13:58:53;11.19;118.99
584;HTU21D;27024;54.068;12.116;2024-02-21T14:01:21;11.33;118.99
584;HTU21D;27024;54.068;12.116;2024-02-21T14:03:48;11.32;118.99
584;HTU21D;27024;54.068;12.116;2024-02-21T14:06:15;11.20;118.99
584;HTU21D;27024;54.068;12.116;2024-02-21T14:08:42;11.34;118.99
584;HTU21D;27024;54.068;12.116;2024-02-21T14:11:09;11.19;118.99
584;HTU21D;27024;54.068;12.116;2024-02-21T14:13:36;11.08;118.99
584;HTU21D;27024;54.068;12.116;2024-02-21T14:16:09;10.84;118.99
584;HTU21D;27024;54.068;12.116;2024-02-21T14:18:37;10.83;118.99
584;HTU21D;27024;54.068;12.116;2024-02-21T14:21:04;10.84;118.99
584;HTU21D;27024;54.068;12.116;2024-02-21T14:23:32;10.69;118.99
584;HTU21D;27024;54.068;12.116;2024-02-21T14:26:00;10.67;118.99
584;HTU21D;27024;54.068;12.116;2024-02-21T14:28:27;10.81;118.99
584;HTU21D;27024;54.068;12.116;2024-02-21T14:30:54;10.77;118.99
584;HTU21D;27024;54.068;12.116;2024-02-21T14:33:24;10.66;118.99
584;HTU21D;27024;54.068;12.116;2024-02-21T14:35:52;10.60;118.99
584;HTU21D;27024;54.068;12.116;2024-02-21T14:38:19;10.55;118.99
584;HTU21D;27024;54.068;12.116;2024-02-21T14:40:46;10.50;118.99
584;HTU21D;27024;54.068;12.116;2024-02-21T14:43:13;10.78;118.99
584;HTU21D;27024;54.068;12.116;2024-02-21T14:45:40;10.50;118.99
584;HTU21D;27024;54.068;12.116;2024-02-21T14:48:07;10.36;118.99
584;HTU21D;27024;54.068;12.116;2024-02-21T14:50:35;10.15;118.99
584;HTU21D;27024;54.068;12.116;2024-02-21T14:53:02;9.96;118.99
584;HTU21D;27024;54.068;12.116;2024-02-21T14:55:29;9.98;118.99
584;HTU21D;27024;54.068;12.116;2024-02-21T14:57:56;9.91;118.99
584;HTU21D;27024;54.068;12.116;2024-02-21T15:00:24;9.92;118.99
584;HTU21D;27024;54.068;12.116;2024-02-21T15:02:57;9.96;118.99
584;HTU21D;27024;54.068;12.116;2024-02-21T15:05:24;9.80;118.99
584;HTU21D;27024;54.068;12.116;2024-02-21T15:07:52;9.55;118.99
584;HTU21D;27024;54.068;12.116;2024-02-21T15:10:19;9.48;118.99
584;HTU21D;27024;54.068;12.116;2024-02-21T15:12:46;9.45;118.99
584;HTU21D;27024;54.068;12.116;2024-02-21T15:15:13;9.39;118.99
584;HTU21D;27024;54.068;12.116;2024-02-21T15:17:41;9.26;118.99
584;HTU21D;27024;54.068;12.116;2024-02-21T15:20:08;9.31;118.99
584;HTU21D;27024;54.068;12.116;2024-02-21T15:22:36;9.34;118.99
584;HTU21D;27024;54.068;12.116;2024-02-21T15:25:04;9.42;118.99
584;HTU21D;27024;54.068;12.116;2024-02-21T15:27:40;9.33;118.99
584;HTU21D;27024;54.068;12.116;2024-02-21T15:30:07;9.20;118.99
584;HTU21D;27024;54.068;12.116;2024-02-21T15:32:34;9.10;118.99